Time;durP1;ratioP1;P1;durP2;ratioP2;P2;SDS_P1;SDS_P2;PMS_P1;PMS_P2;Temp;Humidity;BMP_temperature;BMP_pressure;BME280_temperature;BME280_humidity;BME280_pressure;Samples;Min_cycle;Max_cycle;Signal;HPM_P1;HPM_P2
2024/01/15 00:00:42;;;;;;;14.18;1.65;;;1.60;99.90;;;;;;5083034;28;20046;-63
2024/01/15 00:03:09;;;;;;;9.73;1.30;;;1.70;99.90;;;;;;5115768;27;20080;-63
2024/01/15 00:05:35;;;;;;;15.65;1.20;;;1.60;99.90;;;;;;5118076;27;20036;-63
2024/01/15 00:08:00;;;;;;;9.30;1.35;;;1.70;99.90;;;;;;5114306;27;20089;-63
2024/01/15 00:10:26;;;;;;;13.95;1.15;;;1.70;99.90;;;;;;5082599;28;20043;-63
2024/01/15 00:12:51;;;;;;;10.35;1.27;;;1.70;99.90;;;;;;5078876;28;20040;-64
2024/01/15 00:15:17;;;;;;;9.77;1.45;;;1.70;99.90;;;;;;5081632;28;20116;-63
2024/01/15 00:17:42;;;;;;;12.20;1.48;;;1.70;99.90;;;;;;5117490;27;20384;-62
2024/01/15 00:20:08;;;;;;;15.50;1.77;;;1.80;99.90;;;;;;5082440;28;20121;-63
2024/01/15 00:22:35;;;;;;;10.40;1.23;;;1.70;99.90;;;;;;5083645;28;20036;-63
2024/01/15 00:25:02;;;;;;;9.93;0.80;;;1.80;99.90;;;;;;5080613;28;20067;-63
2024/01/15 00:27:27;;;;;;;8.48;1.10;;;1.80;99.90;;;;;;5112429;27;20079;-63
2024/01/15 00:29:54;;;;;;;14.43;1.77;;;1.70;99.90;;;;;;5083270;28;20079;-63
2024/01/15 00:32:20;;;;;;;8.45;1.20;;;1.80;99.90;;;;;;5083059;28;20040;-63
2024/01/15 00:34:45;;;;;;;12.07;1.30;;;1.80;99.90;;;;;;5113888;27;20391;-63
2024/01/15 00:37:11;;;;;;;9.00;0.93;;;1.80;99.90;;;;;;5082678;28;20068;-63
2024/01/15 00:39:37;;;;;;;10.23;2.20;;;1.70;99.90;;;;;;5084128;28;20127;-63
2024/01/15 00:42:02;;;;;;;9.70;1.50;;;1.80;99.90;;;;;;5086522;28;20573;-64
2024/01/15 00:44:28;;;;;;;14.63;1.70;;;1.90;99.90;;;;;;5086754;28;20051;-63
2024/01/15 00:46:54;;;;;;;10.07;1.35;;;1.90;99.90;;;;;;5087165;28;20038;-63
2024/01/15 00:49:19;;;;;;;9.85;1.25;;;2.00;99.90;;;;;;5088356;28;20042;-63
2024/01/15 00:51:45;;;;;;;14.23;1.27;;;1.90;99.90;;;;;;5119407;27;20136;-63
2024/01/15 00:54:11;;;;;;;10.70;1.30;;;2.00;99.90;;;;;;5089584;28;20028;-63
2024/01/15 00:56:37;;;;;;;13.70;1.42;;;2.00;99.90;;;;;;5088934;28;20043;-63
2024/01/15 00:59:02;;;;;;;9.85;1.40;;;2.00;99.90;;;;;;5084217;28;20043;-63
2024/01/15 01:01:28;;;;;;;14.95;1.98;;;2.10;99.90;;;;;;5087145;28;20115;-63
2024/01/15 01:03:54;;;;;;;13.15;1.35;;;2.10;99.90;;;;;;5085797;28;20110;-63
2024/01/15 01:06:19;;;;;;;12.73;1.35;;;2.10;99.90;;;;;;5091618;28;20078;-62
2024/01/15 01:08:45;;;;;;;11.65;2.55;;;2.20;99.90;;;;;;5089992;28;20051;-63
2024/01/15 01:11:15;;;;;;;11.10;2.35;;;2.20;99.90;;;;;;5090940;28;20048;-64
2024/01/15 01:13:42;;;;;;;11.27;1.42;;;2.20;99.90;;;;;;5088481;28;20081;-63
2024/01/15 01:16:08;;;;;;;15.32;2.47;;;2.20;99.90;;;;;;5118748;27;20044;-64
2024/01/15 01:18:33;;;;;;;15.30;1.98;;;2.30;99.90;;;;;;5118587;27;20051;-64
2024/01/15 01:20:59;;;;;;;12.90;1.77;;;2.30;99.90;;;;;;5087086;28;20032;-64
2024/01/15 01:23:24;;;;;;;11.00;1.98;;;2.30;99.90;;;;;;5087859;28;20394;-63
2024/01/15 01:25:50;;;;;;;10.85;1.45;;;2.30;99.90;;;;;;5071286;28;20036;-63
2024/01/15 01:28:16;;;;;;;7.55;1.00;;;2.30;99.90;;;;;;5085284;28;20450;-64
2024/01/15 01:30:41;;;;;;;7.25;0.77;;;2.30;99.90;;;;;;5087968;28;20036;-65
2024/01/15 01:33:07;;;;;;;6.90;1.25;;;2.20;99.90;;;;;;5085155;28;20040;-64
2024/01/15 01:35:32;;;;;;;4.03;2.00;;;2.20;99.90;;;;;;5088376;28;20035;-63
2024/01/15 01:37:58;;;;;;;3.72;0.30;;;2.20;99.90;;;;;;5084859;28;20128;-64
2024/01/15 01:40:23;;;;;;;4.95;0.35;;;2.10;99.90;;;;;;5085204;28;20119;-63
2024/01/15 01:42:49;;;;;;;3.17;0.22;;;2.10;99.90;;;;;;5087002;28;20093;-64
2024/01/15 01:45:15;;;;;;;2.42;0.82;;;2.00;99.90;;;;;;5071827;28;20040;-64
2024/01/15 01:47:41;;;;;;;5.13;0.40;;;2.00;99.90;;;;;;5082003;28;20434;-64
2024/01/15 01:50:07;;;;;;;4.07;0.70;;;1.90;99.90;;;;;;5085866;28;20035;-64
2024/01/15 01:52:34;;;;;;;2.90;0.30;;;1.90;99.90;;;;;;5084956;28;20040;-64
2024/01/15 01:55:02;;;;;;;1.65;0.30;;;1.80;99.90;;;;;;5116663;27;20071;-64
2024/01/15 01:57:28;;;;;;;3.30;0.25;;;1.80;99.90;;;;;;5114890;27;20463;-63
2024/01/15 01:59:54;;;;;;;4.45;0.38;;;1.80;99.90;;;;;;5082582;28;20045;-64
2024/01/15 02:02:21;;;;;;;3.42;0.28;;;1.90;99.90;;;;;;5087574;28;20486;-64
2024/01/15 02:04:47;;;;;;;3.58;0.25;;;1.80;99.90;;;;;;5087102;28;20039;-63
2024/01/15 02:07:13;;;;;;;4.00;0.60;;;1.80;99.90;;;;;;5083643;28;20027;-64
2024/01/15 02:09:39;;;;;;;6.65;0.60;;;1.80;99.90;;;;;;5086370;28;20039;-64
2024/01/15 02:12:05;;;;;;;9.88;1.45;;;1.70;99.90;;;;;;5116340;27;20093;-63
2024/01/15 02:14:31;;;;;;;4.55;0.65;;;1.80;99.90;;;;;;5089051;28;20044;-64
2024/01/15 02:16:57;;;;;;;7.40;1.13;;;1.80;99.90;;;;;;5082715;28;20050;-64
2024/01/15 02:19:22;;;;;;;10.07;1.13;;;1.80;99.90;;;;;;5084260;28;20047;-64
2024/01/15 02:21:48;;;;;;;9.75;0.93;;;1.80;99.90;;;;;;5088763;28;20115;-64
2024/01/15 02:24:13;;;;;;;11.07;0.80;;;1.80;99.90;;;;;;5116404;27;20119;-64
2024/01/15 02:26:39;;;;;;;11.68;1.48;;;1.80;99.90;;;;;;5088840;28;20093;-64
2024/01/15 02:29:08;;;;;;;5.88;0.88;;;1.80;99.90;;;;;;5085074;28;20460;-63
2024/01/15 02:31:36;;;;;;;10.82;1.20;;;1.80;99.90;;;;;;5087178;28;20534;-64
2024/01/15 02:34:01;;;;;;;8.40;1.10;;;1.80;99.90;;;;;;5115933;27;20047;-64
2024/01/15 02:36:27;;;;;;;10.90;0.85;;;1.90;99.90;;;;;;5081215;28;20504;-63
2024/01/15 02:38:53;;;;;;;7.35;1.08;;;1.80;99.90;;;;;;5082823;28;20051;-63
2024/01/15 02:41:18;;;;;;;6.85;0.90;;;1.90;99.90;;;;;;5087443;28;20040;-64
2024/01/15 02:43:44;;;;;;;9.23;1.33;;;1.90;99.90;;;;;;5086724;28;20042;-63
2024/01/15 02:46:09;;;;;;;10.65;1.38;;;1.90;99.90;;;;;;5082497;28;20047;-63
2024/01/15 02:48:35;;;;;;;11.05;1.13;;;1.90;99.90;;;;;;5084482;28;20037;-63
2024/01/15 02:51:02;;;;;;;9.50;0.98;;;2.00;99.90;;;;;;5084958;28;20043;-64
2024/01/15 02:53:27;;;;;;;12.45;0.95;;;2.00;99.90;;;;;;5088803;28;20127;-64
2024/01/15 02:55:53;;;;;;;10.55;1.13;;;2.00;99.90;;;;;;5083640;28;20143;-64
2024/01/15 02:58:19;;;;;;;13.52;1.70;;;2.10;99.90;;;;;;5086950;28;20036;-64
2024/01/15 03:00:46;;;;;;;16.55;1.85;;;2.00;99.90;;;;;;5087268;28;20512;-64
2024/01/15 03:03:11;;;;;;;8.27;1.88;;;2.10;99.90;;;;;;5083131;28;20055;-64
2024/01/15 03:05:37;;;;;;;9.23;1.13;;;2.10;99.90;;;;;;5116941;27;20036;-64
2024/01/15 03:08:03;;;;;;;8.93;1.13;;;2.10;99.90;;;;;;5098354;27;20056;-65
2024/01/15 03:10:28;;;;;;;9.15;0.88;;;2.10;99.90;;;;;;5113997;27;20419;-64
2024/01/15 03:12:54;;;;;;;12.55;1.33;;;2.10;99.90;;;;;;5086526;28;20043;-64
2024/01/15 03:15:20;;;;;;;11.18;1.88;;;2.10;99.90;;;;;;5085544;28;20048;-63
2024/01/15 03:17:45;;;;;;;12.95;1.40;;;2.10;99.90;;;;;;5082828;28;20082;-64
2024/01/15 03:20:12;;;;;;;8.57;0.98;;;2.10;99.90;;;;;;5083277;28;20036;-63
2024/01/15 03:22:37;;;;;;;11.55;1.55;;;2.00;99.90;;;;;;5085611;28;20040;-64
2024/01/15 03:25:04;;;;;;;10.25;1.08;;;2.00;99.90;;;;;;5084732;28;20105;-64
2024/01/15 03:27:29;;;;;;;8.75;1.27;;;2.00;99.90;;;;;;5086608;28;20067;-64
2024/01/15 03:29:55;;;;;;;6.68;0.98;;;2.00;99.90;;;;;;5084118;28;20070;-64
2024/01/15 03:32:21;;;;;;;13.85;1.75;;;2.00;99.90;;;;;;5084807;28;20028;-64
2024/01/15 03:34:55;;;;;;;6.95;0.90;;;2.00;99.90;;;;;;5069121;28;20036;-64
2024/01/15 03:37:21;;;;;;;11.38;1.75;;;2.00;99.90;;;;;;5088027;28;20475;-64
2024/01/15 03:39:46;;;;;;;9.85;1.85;;;2.10;99.90;;;;;;5114620;27;20071;-63
2024/01/15 03:42:12;;;;;;;5.95;1.08;;;2.10;99.90;;;;;;5084516;28;20067;-64
2024/01/15 03:44:38;;;;;;;8.45;2.10;;;2.20;99.90;;;;;;5084695;28;20379;-63
2024/01/15 03:47:04;;;;;;;8.77;0.95;;;2.20;99.90;;;;;;5085368;28;20079;-64
2024/01/15 03:49:29;;;;;;;4.90;0.82;;;2.20;99.90;;;;;;5083844;28;20039;-64
2024/01/15 03:51:55;;;;;;;14.90;1.13;;;2.20;99.90;;;;;;5085471;28;20120;-64
2024/01/15 03:54:21;;;;;;;6.47;0.90;;;2.20;99.90;;;;;;5085667;28;20027;-64
2024/01/15 03:56:47;;;;;;;9.75;0.80;;;2.20;99.90;;;;;;5085111;28;20048;-64
2024/01/15 03:59:12;;;;;;;6.85;0.98;;;2.20;99.90;;;;;;5117134;27;20162;-64
2024/01/15 04:01:38;;;;;;;9.07;0.98;;;2.10;99.90;;;;;;5082634;28;20035;-63
2024/01/15 04:04:03;;;;;;;11.25;0.93;;;2.10;99.90;;;;;;5113298;27;20416;-64
2024/01/15 04:06:29;;;;;;;7.03;0.77;;;2.10;99.90;;;;;;5081641;28;20032;-64
2024/01/15 04:08:54;;;;;;;13.63;0.90;;;2.10;99.90;;;;;;5085832;28;20398;-63
2024/01/15 04:11:20;;;;;;;10.02;0.88;;;2.10;99.90;;;;;;5088494;28;20044;-64
2024/01/15 04:13:46;;;;;;;6.22;0.73;;;2.00;99.90;;;;;;5082449;28;20378;-64
2024/01/15 04:16:11;;;;;;;8.07;1.00;;;2.00;99.90;;;;;;5089491;28;20031;-64
2024/01/15 04:18:37;;;;;;;7.45;1.25;;;2.00;99.90;;;;;;5087788;28;20047;-64
2024/01/15 04:21:05;;;;;;;9.05;0.80;;;2.10;99.90;;;;;;5089614;28;20067;-64
2024/01/15 04:23:31;;;;;;;8.35;1.42;;;2.00;99.90;;;;;;5088112;28;20036;-64
2024/01/15 04:25:57;;;;;;;8.93;1.80;;;2.00;99.90;;;;;;5088400;28;20036;-64
2024/01/15 04:28:22;;;;;;;7.55;1.25;;;2.00;99.90;;;;;;5090751;28;20054;-63
2024/01/15 04:30:48;;;;;;;11.35;2.05;;;2.00;99.90;;;;;;5087718;28;20040;-64
2024/01/15 04:33:14;;;;;;;12.55;1.92;;;2.00;99.90;;;;;;5083695;28;20044;-64
2024/01/15 04:35:39;;;;;;;9.52;1.30;;;2.00;99.90;;;;;;5087488;28;20489;-64
2024/01/15 04:38:05;;;;;;;14.25;1.65;;;2.10;99.90;;;;;;5088130;28;20043;-64
2024/01/15 04:40:30;;;;;;;10.63;1.17;;;2.00;99.90;;;;;;5088218;28;20139;-64
2024/01/15 04:42:56;;;;;;;10.45;0.98;;;2.10;99.90;;;;;;5088230;28;20032;-64
2024/01/15 04:45:28;;;;;;;14.35;1.92;;;2.10;99.90;;;;;;5088353;28;20040;-64
2024/01/15 04:47:55;;;;;;;10.18;0.85;;;2.20;99.90;;;;;;5088419;28;20040;-64
2024/01/15 04:50:21;;;;;;;11.82;1.67;;;2.20;99.90;;;;;;5089669;28;20115;-64
2024/01/15 04:52:47;;;;;;;7.72;1.70;;;2.20;99.90;;;;;;5125290;27;20123;-64
2024/01/15 04:55:12;;;;;;;10.40;1.20;;;2.20;99.90;;;;;;5088808;28;20375;-64
2024/01/15 04:57:38;;;;;;;8.23;0.80;;;2.20;99.90;;;;;;5088454;28;20142;-64
2024/01/15 05:00:04;;;;;;;10.90;1.95;;;2.20;99.90;;;;;;5090578;28;20032;-63
2024/01/15 05:02:30;;;;;;;7.90;1.50;;;2.20;99.90;;;;;;5102431;27;20056;-64
2024/01/15 05:04:56;;;;;;;9.68;1.58;;;2.20;99.90;;;;;;5088123;28;20477;-63
2024/01/15 05:07:22;;;;;;;7.50;1.00;;;2.10;99.90;;;;;;5084538;28;20047;-64
2024/01/15 05:09:47;;;;;;;7.57;0.98;;;2.10;99.90;;;;;;5080618;28;20032;-64
2024/01/15 05:12:13;;;;;;;6.93;0.60;;;2.00;99.90;;;;;;5115057;27;20501;-63
2024/01/15 05:14:39;;;;;;;8.07;1.00;;;2.00;99.90;;;;;;5085646;28;20043;-64
2024/01/15 05:17:04;;;;;;;9.60;1.08;;;2.00;99.90;;;;;;5085072;28;20516;-64
2024/01/15 05:19:30;;;;;;;6.28;1.52;;;1.90;99.90;;;;;;5087716;28;20078;-64
2024/01/15 05:21:56;;;;;;;11.82;1.48;;;1.90;99.90;;;;;;5089452;28;20040;-64
2024/01/15 05:24:21;;;;;;;7.05;1.15;;;1.90;99.90;;;;;;5086911;28;20032;-64
2024/01/15 05:26:47;;;;;;;8.43;0.77;;;1.80;99.90;;;;;;5086166;28;20028;-64
2024/01/15 05:29:12;;;;;;;8.25;1.20;;;1.80;99.90;;;;;;5084432;28;20075;-63
2024/01/15 05:31:38;;;;;;;7.30;0.80;;;1.80;99.90;;;;;;5081471;28;20398;-63
2024/01/15 05:34:04;;;;;;;13.35;1.30;;;1.80;99.90;;;;;;5081186;28;20047;-63
2024/01/15 05:36:30;;;;;;;12.43;1.95;;;1.80;99.90;;;;;;5061770;28;20040;-63
2024/01/15 05:38:55;;;;;;;12.75;1.77;;;1.80;99.90;;;;;;5075894;28;20044;-63
2024/01/15 05:41:21;;;;;;;10.63;0.90;;;1.80;99.90;;;;;;5077384;28;20071;-64
2024/01/15 05:43:47;;;;;;;8.80;1.52;;;1.80;99.90;;;;;;5078868;28;20039;-63
2024/01/15 05:46:12;;;;;;;7.35;0.68;;;1.90;99.90;;;;;;5080979;28;20036;-64
2024/01/15 05:48:38;;;;;;;5.90;0.73;;;1.80;99.90;;;;;;5084631;28;20040;-64
2024/01/15 05:51:04;;;;;;;6.97;0.90;;;1.80;99.90;;;;;;5067990;28;20048;-64
2024/01/15 05:53:30;;;;;;;10.65;1.02;;;1.70;99.90;;;;;;5097702;28;20060;-64
2024/01/15 05:55:56;;;;;;;8.30;1.17;;;1.80;99.90;;;;;;5085682;28;20093;-64
2024/01/15 05:58:22;;;;;;;6.22;0.88;;;1.70;99.90;;;;;;5084613;28;20047;-64
2024/01/15 06:00:49;;;;;;;12.02;1.15;;;1.70;99.90;;;;;;5115216;27;20040;-63
2024/01/15 06:03:15;;;;;;;8.20;1.00;;;1.60;99.90;;;;;;5080377;28;20100;-63
2024/01/15 06:05:41;;;;;;;10.55;1.17;;;1.70;99.90;;;;;;5085273;28;20031;-64
2024/01/15 06:08:06;;;;;;;16.60;1.30;;;1.60;99.90;;;;;;5045658;28;1067238;-63
2024/01/15 06:10:32;;;;;;;12.73;1.60;;;1.60;99.90;;;;;;5084654;28;20044;-64
2024/01/15 06:12:57;;;;;;;8.25;1.27;;;1.60;99.90;;;;;;5086820;28;20035;-64
2024/01/15 06:15:23;;;;;;;10.27;0.70;;;1.60;99.90;;;;;;5085162;28;20032;-64
2024/01/15 06:17:48;;;;;;;12.77;1.10;;;1.60;99.90;;;;;;5084258;28;20613;-64
2024/01/15 06:20:14;;;;;;;11.68;1.15;;;1.60;99.90;;;;;;5083228;28;20040;-63
2024/01/15 06:22:40;;;;;;;9.00;1.00;;;1.60;99.90;;;;;;5084928;28;20054;-64
2024/01/15 06:25:08;;;;;;;11.63;1.58;;;1.60;99.90;;;;;;5087515;28;20031;-64
2024/01/15 06:27:34;;;;;;;8.63;0.80;;;1.60;99.90;;;;;;5116786;27;20037;-64
2024/01/15 06:29:59;;;;;;;12.00;1.15;;;1.50;99.90;;;;;;5087543;28;20032;-64
2024/01/15 06:32:25;;;;;;;7.20;1.52;;;1.60;99.90;;;;;;5086462;28;20051;-63
2024/01/15 06:34:51;;;;;;;13.10;1.50;;;1.60;99.90;;;;;;5085427;28;20040;-63
2024/01/15 06:37:18;;;;;;;10.60;0.75;;;1.50;99.90;;;;;;5084267;28;20050;-64
2024/01/15 06:39:44;;;;;;;11.07;1.40;;;1.50;99.90;;;;;;5084529;28;20478;-64
2024/01/15 06:42:09;;;;;;;10.82;1.38;;;1.50;99.90;;;;;;5115582;27;20040;-64
2024/01/15 06:44:35;;;;;;;9.40;1.20;;;1.50;99.90;;;;;;5086406;28;20063;-64
2024/01/15 06:47:02;;;;;;;10.38;1.00;;;1.40;99.90;;;;;;5085864;28;20049;-63
2024/01/15 06:49:29;;;;;;;9.93;1.27;;;1.50;99.90;;;;;;5113683;27;20072;-63
2024/01/15 06:51:55;;;;;;;7.38;1.00;;;1.50;99.90;;;;;;5090914;28;20055;-63
2024/01/15 06:54:21;;;;;;;18.05;1.30;;;1.50;99.90;;;;;;5115691;27;20051;-66
2024/01/15 06:56:46;;;;;;;18.20;1.30;;;1.50;99.90;;;;;;5086732;28;20032;-66
2024/01/15 06:59:12;;;;;;;9.52;1.45;;;1.50;99.90;;;;;;5083137;28;20036;-66
2024/01/15 07:01:38;;;;;;;11.52;1.50;;;1.60;99.90;;;;;;5084705;28;20045;-62
2024/01/15 07:04:03;;;;;;;13.50;1.33;;;1.60;99.90;;;;;;5082019;28;20047;-63
2024/01/15 07:06:30;;;;;;;8.82;1.00;;;1.60;99.90;;;;;;5083456;28;20044;-63
2024/01/15 07:08:56;;;;;;;11.95;1.00;;;1.50;99.90;;;;;;5081145;28;20506;-63
2024/01/15 07:11:22;;;;;;;12.18;1.25;;;1.50;99.90;;;;;;5114032;27;20024;-63
2024/01/15 07:13:47;;;;;;;14.35;2.97;;;1.50;99.90;;;;;;5083213;28;20049;-64
2024/01/15 07:16:13;;;;;;;11.45;1.38;;;1.50;99.90;;;;;;5082977;28;20044;-64
2024/01/15 07:18:39;;;;;;;11.13;1.70;;;1.50;99.90;;;;;;5085842;28;20036;-64
2024/01/15 07:21:04;;;;;;;10.05;1.23;;;1.50;99.90;;;;;;5114140;27;20070;-64
2024/01/15 07:23:31;;;;;;;12.20;1.08;;;1.40;99.90;;;;;;5085979;28;20040;-64
2024/01/15 07:25:57;;;;;;;13.90;1.20;;;1.50;99.90;;;;;;5082042;28;20082;-64
2024/01/15 07:28:22;;;;;;;13.10;2.00;;;1.40;99.90;;;;;;5116099;27;20073;-64
2024/01/15 07:30:48;;;;;;;8.98;1.35;;;1.40;99.90;;;;;;5082691;28;20079;-64
2024/01/15 07:33:14;;;;;;;8.77;0.75;;;1.30;99.90;;;;;;5085404;28;20043;-64
2024/01/15 07:35:39;;;;;;;6.88;0.73;;;1.30;99.90;;;;;;5081522;28;20047;-64
2024/01/15 07:38:05;;;;;;;14.60;1.48;;;1.30;99.90;;;;;;5083071;28;20043;-64
2024/01/15 07:40:30;;;;;;;12.10;0.82;;;1.30;99.90;;;;;;5086380;28;20027;-64
2024/01/15 07:42:56;;;;;;;17.60;1.40;;;1.30;99.90;;;;;;5086036;28;20183;-64
2024/01/15 07:45:21;;;;;;;11.63;1.30;;;1.30;99.90;;;;;;5090118;28;20039;-63
2024/01/15 07:47:47;;;;;;;9.48;1.33;;;1.30;99.90;;;;;;5081145;28;20036;-64
2024/01/15 07:50:13;;;;;;;11.07;0.73;;;1.40;99.90;;;;;;5084474;28;20028;-64
2024/01/15 07:52:41;;;;;;;10.48;1.63;;;1.30;99.90;;;;;;5081724;28;20055;-64
2024/01/15 07:55:07;;;;;;;10.13;1.70;;;1.30;99.90;;;;;;5080183;28;20055;-64
2024/01/15 07:57:33;;;;;;;11.55;1.63;;;1.30;99.90;;;;;;5115734;27;20467;-63
2024/01/15 07:59:58;;;;;;;10.55;1.10;;;1.20;99.90;;;;;;5084141;28;20043;-64
2024/01/15 08:02:24;;;;;;;10.60;1.35;;;1.30;99.90;;;;;;5085968;28;20483;-64
2024/01/15 08:04:50;;;;;;;13.13;1.95;;;1.20;99.90;;;;;;5080939;28;20096;-64
2024/01/15 08:07:15;;;;;;;9.45;1.25;;;1.30;99.90;;;;;;5086309;28;20024;-64
2024/01/15 08:09:41;;;;;;;9.40;1.20;;;1.20;99.90;;;;;;5080723;28;20132;-63
2024/01/15 08:12:07;;;;;;;10.82;2.55;;;1.30;99.90;;;;;;5080919;28;20414;-63
2024/01/15 08:14:33;;;;;;;14.80;1.40;;;1.40;99.90;;;;;;5081813;28;20101;-64
2024/01/15 08:16:59;;;;;;;11.80;2.13;;;1.30;99.90;;;;;;5084644;28;20036;-64
2024/01/15 08:19:24;;;;;;;15.25;1.00;;;1.40;99.90;;;;;;5081351;28;20037;-64
2024/01/15 08:21:50;;;;;;;8.32;1.30;;;1.40;99.90;;;;;;5083444;28;20068;-63
2024/01/15 08:24:16;;;;;;;8.13;0.80;;;1.50;99.90;;;;;;5080881;28;20405;-64
2024/01/15 08:26:42;;;;;;;6.65;0.77;;;1.50;99.90;;;;;;5083873;28;20039;-64
2024/01/15 08:29:08;;;;;;;13.98;1.60;;;1.60;99.90;;;;;;5112536;27;20048;-65
2024/01/15 08:31:34;;;;;;;15.70;2.35;;;1.60;99.90;;;;;;5083795;28;20040;-65
2024/01/15 08:34:01;;;;;;;9.45;1.08;;;1.70;99.90;;;;;;5082302;28;20043;-65
2024/01/15 08:36:29;;;;;;;13.55;1.55;;;1.70;99.90;;;;;;5080288;28;20061;-62
2024/01/15 08:38:55;;;;;;;11.27;1.92;;;1.70;99.90;;;;;;5117881;27;20040;-63
2024/01/15 08:41:20;;;;;;;12.50;1.67;;;1.70;99.90;;;;;;5065186;28;20101;-62
2024/01/15 08:43:46;;;;;;;9.80;1.55;;;1.70;99.90;;;;;;5084067;28;20125;-62
2024/01/15 08:46:12;;;;;;;9.52;2.00;;;1.70;99.90;;;;;;5084752;28;20028;-63
2024/01/15 08:48:37;;;;;;;12.00;1.58;;;1.70;99.90;;;;;;5063661;28;20048;-63
2024/01/15 08:51:03;;;;;;;10.55;1.67;;;1.80;99.90;;;;;;5081224;28;20067;-62
2024/01/15 08:53:29;;;;;;;9.93;1.25;;;1.70;99.90;;;;;;5084992;28;20122;-63
2024/01/15 08:55:55;;;;;;;12.23;1.00;;;1.70;99.90;;;;;;5082941;28;20124;-63
2024/01/15 08:58:21;;;;;;;9.52;1.30;;;1.80;99.90;;;;;;5084416;28;20067;-62
2024/01/15 09:00:46;;;;;;;11.80;2.15;;;1.80;99.90;;;;;;5082013;28;20492;-62
2024/01/15 09:03:12;;;;;;;17.92;1.73;;;1.80;99.90;;;;;;5085079;28;20398;-62
2024/01/15 09:05:38;;;;;;;12.77;1.27;;;1.80;99.90;;;;;;5083266;28;20036;-63
2024/01/15 09:08:04;;;;;;;12.55;2.20;;;1.90;99.90;;;;;;5085449;28;20066;-63
2024/01/15 09:10:29;;;;;;;14.13;1.50;;;2.00;99.90;;;;;;5088544;28;20035;-62
2024/01/15 09:12:55;;;;;;;20.45;3.65;;;2.50;99.90;;;;;;5081402;28;20033;-63
2024/01/15 09:15:21;;;;;;;14.82;2.25;;;2.10;99.90;;;;;;5118205;27;20122;-63
2024/01/15 09:17:46;;;;;;;12.43;1.50;;;2.20;99.90;;;;;;5083300;28;20395;-63
2024/01/15 09:20:12;;;;;;;6.72;1.13;;;2.20;99.90;;;;;;5084939;28;20168;-62
2024/01/15 09:22:42;;;;;;;10.95;1.48;;;2.20;99.90;;;;;;5083533;28;20036;-63
2024/01/15 09:25:09;;;;;;;9.65;0.98;;;2.10;99.90;;;;;;5085415;28;20101;-62
2024/01/15 09:27:35;;;;;;;10.90;1.02;;;2.20;99.90;;;;;;5085479;28;20041;-62
2024/01/15 09:30:02;;;;;;;11.73;1.45;;;2.30;99.90;;;;;;5086373;28;20107;-63
2024/01/15 09:32:27;;;;;;;6.63;0.90;;;2.30;99.90;;;;;;5085519;28;20039;-63
2024/01/15 09:34:53;;;;;;;11.13;1.50;;;2.40;99.90;;;;;;5087186;28;20046;-62
2024/01/15 09:37:18;;;;;;;9.38;1.48;;;2.40;99.90;;;;;;5082844;28;20040;-62
2024/01/15 09:39:44;;;;;;;12.52;1.48;;;2.40;99.90;;;;;;5081731;28;20040;-62
2024/01/15 09:42:10;;;;;;;6.95;2.10;;;2.40;99.90;;;;;;5083713;28;20032;-63
2024/01/15 09:44:37;;;;;;;8.88;0.65;;;2.40;99.90;;;;;;5084206;28;20036;-63
2024/01/15 09:47:04;;;;;;;9.00;1.30;;;2.50;99.90;;;;;;5066785;28;20398;-63
2024/01/15 09:49:30;;;;;;;8.90;1.00;;;2.50;99.90;;;;;;5088406;28;20458;-63
2024/01/15 09:51:57;;;;;;;7.00;1.10;;;2.60;99.90;;;;;;5085523;28;20174;-62
2024/01/15 09:54:23;;;;;;;8.52;1.35;;;2.60;99.90;;;;;;5085036;28;20063;-62
2024/01/15 09:56:50;;;;;;;7.38;0.90;;;2.70;99.90;;;;;;5066829;28;20059;-63
2024/01/15 09:59:18;;;;;;;8.20;2.00;;;2.70;99.90;;;;;;5083437;28;20395;-63
2024/01/15 10:01:44;;;;;;;11.57;1.38;;;2.80;99.90;;;;;;5083652;28;20043;-62
2024/01/15 10:04:12;;;;;;;10.43;1.17;;;2.80;99.90;;;;;;5086274;28;20055;-63
2024/01/15 10:06:39;;;;;;;10.55;1.50;;;2.70;99.90;;;;;;5083811;28;20044;-62
2024/01/15 10:09:07;;;;;;;6.30;1.05;;;2.70;99.90;;;;;;5083686;28;20155;-63
2024/01/15 10:11:33;;;;;;;7.88;1.20;;;2.80;99.90;;;;;;5116180;27;20141;-63
2024/01/15 10:13:59;;;;;;;7.93;0.77;;;2.80;99.90;;;;;;5086031;28;20650;-63
2024/01/15 10:16:25;;;;;;;5.95;0.70;;;2.80;99.90;;;;;;5086943;28;20048;-62
2024/01/15 10:18:51;;;;;;;8.57;1.10;;;2.90;99.90;;;;;;5083486;28;20506;-63
2024/01/15 10:21:17;;;;;;;6.28;0.98;;;2.90;99.90;;;;;;5083283;28;20087;-63
2024/01/15 10:23:43;;;;;;;9.27;0.77;;;2.90;99.90;;;;;;5079510;28;20035;-63
2024/01/15 10:26:08;;;;;;;7.63;0.90;;;3.00;99.90;;;;;;5081576;28;20203;-63
2024/01/15 10:28:34;;;;;;;9.68;0.70;;;2.90;99.90;;;;;;5082092;28;20043;-62
2024/01/15 10:31:01;;;;;;;7.38;1.02;;;2.90;99.90;;;;;;5085365;28;20052;-63
2024/01/15 10:33:27;;;;;;;5.00;0.57;;;2.90;99.90;;;;;;5081271;28;20032;-63
2024/01/15 10:35:55;;;;;;;10.82;0.88;;;3.00;99.90;;;;;;5063301;28;20084;-63
2024/01/15 10:38:22;;;;;;;8.90;0.60;;;3.00;99.90;;;;;;5079518;28;20047;-64
2024/01/15 10:40:50;;;;;;;4.00;0.55;;;3.00;99.90;;;;;;5079380;28;20048;-62
2024/01/15 10:43:17;;;;;;;5.10;1.00;;;3.00;99.90;;;;;;5080837;28;20032;-63
2024/01/15 10:45:48;;;;;;;5.72;0.90;;;3.00;99.90;;;;;;5083098;28;20036;-63
2024/01/15 10:48:15;;;;;;;7.63;0.85;;;3.00;99.90;;;;;;5082922;28;20043;-64
2024/01/15 10:50:41;;;;;;;7.22;1.05;;;3.10;99.90;;;;;;5096236;28;20044;-63
2024/01/15 10:53:09;;;;;;;7.03;0.90;;;3.10;99.90;;;;;;5113821;27;20059;-64
2024/01/15 10:55:37;;;;;;;9.70;1.02;;;3.10;99.90;;;;;;5113883;27;20070;-63
2024/01/15 10:58:03;;;;;;;2.63;0.40;;;3.10;99.90;;;;;;5081696;28;20044;-63
2024/01/15 11:00:30;;;;;;;6.15;0.90;;;3.10;99.90;;;;;;5113999;27;20509;-63
2024/01/15 11:02:56;;;;;;;7.15;0.45;;;3.10;99.90;;;;;;5082306;28;20059;-63
2024/01/15 11:05:22;;;;;;;5.15;0.30;;;3.20;99.90;;;;;;5079499;28;20075;-63
2024/01/15 11:07:55;;;;;;;2.22;0.20;;;3.20;99.90;;;;;;5082124;28;20032;-63
2024/01/15 11:10:41;;;;;;;3.50;0.50;;;3.30;99.90;;;;;;5080808;28;20437;-63
2024/01/15 11:13:20;;;;;;;3.87;0.30;;;3.30;99.90;;;;;;5079704;28;20036;-63
2024/01/15 11:15:59;;;;;;;0.85;0.10;;;3.20;99.90;;;;;;5081374;28;20031;-63
2024/01/15 11:18:31;;;;;;;1.60;0.65;;;3.20;99.90;;;;;;5080896;28;20044;-63
2024/01/15 11:23:49;;;;;;;4.60;0.38;;;3.20;99.90;;;;;;5077072;28;20040;-63
2024/01/15 11:26:35;;;;;;;3.50;0.40;;;3.20;99.90;;;;;;5112077;27;20155;-63
2024/01/15 11:29:26;;;;;;;2.55;0.35;;;3.20;99.90;;;;;;5081515;28;20556;-63
2024/01/15 11:31:55;;;;;;;3.17;0.20;;;3.20;99.90;;;;;;5081284;28;20444;-64
2024/01/15 11:34:41;;;;;;;7.45;0.82;;;3.20;99.90;;;;;;5082711;28;20116;-63
2024/01/15 11:37:06;;;;;;;2.42;0.35;;;3.20;99.90;;;;;;5078633;28;20135;-63
2024/01/15 11:39:32;;;;;;;0.93;0.10;;;3.20;99.90;;;;;;5079851;28;20119;-63
2024/01/15 11:42:03;;;;;;;4.60;0.40;;;3.20;99.90;;;;;;5079873;28;20071;-63
2024/01/15 11:44:30;;;;;;;4.40;0.38;;;3.10;99.90;;;;;;5079299;28;20386;-63
2024/01/15 11:47:38;;;;;;;2.05;0.30;;;3.10;99.90;;;;;;5081047;28;20043;-63
2024/01/15 11:50:08;;;;;;;6.45;0.77;;;3.20;99.90;;;;;;5076322;28;20048;-63
2024/01/15 11:52:38;;;;;;;4.15;1.15;;;3.20;99.90;;;;;;5084152;28;20079;-63
2024/01/15 11:55:22;;;;;;;3.35;0.30;;;3.20;99.90;;;;;;5080507;28;20067;-63
2024/01/15 11:57:54;;;;;;;7.50;0.55;;;3.30;99.90;;;;;;5080326;28;20040;-63
2024/01/15 12:00:21;;;;;;;2.35;0.30;;;3.30;99.90;;;;;;5078894;28;20471;-63
2024/01/15 12:02:48;;;;;;;4.75;0.88;;;3.20;99.90;;;;;;5114129;27;20055;-63
2024/01/15 12:05:16;;;;;;;3.90;0.40;;;3.00;99.90;;;;;;5081142;28;20390;-63
2024/01/15 12:07:44;;;;;;;3.08;0.80;;;2.80;99.90;;;;;;5077600;28;20474;-63
2024/01/15 12:10:11;;;;;;;4.93;0.45;;;2.60;99.90;;;;;;5081829;28;20051;-63
2024/01/15 12:12:43;;;;;;;4.60;0.30;;;2.50;99.90;;;;;;5077688;28;20048;-63
2024/01/15 12:15:09;;;;;;;2.42;0.20;;;2.30;99.90;;;;;;5076041;28;20112;-63
2024/01/15 12:17:36;;;;;;;1.77;0.20;;;2.20;99.90;;;;;;5081746;28;20118;-63
2024/01/15 12:20:06;;;;;;;2.25;0.50;;;2.10;99.90;;;;;;5079544;28;20040;-63
2024/01/15 12:22:31;;;;;;;2.97;0.35;;;2.00;99.90;;;;;;5080041;28;20048;-63
2024/01/15 12:24:57;;;;;;;3.53;0.30;;;2.00;99.90;;;;;;5080511;28;20040;-63
2024/01/15 12:27:24;;;;;;;4.03;0.38;;;2.00;99.90;;;;;;5081936;28;20121;-63
2024/01/15 12:29:49;;;;;;;1.52;0.50;;;2.00;99.90;;;;;;5078736;28;20470;-63
2024/01/15 12:32:15;;;;;;;4.55;0.77;;;2.00;99.90;;;;;;5064014;28;20051;-63
2024/01/15 12:34:41;;;;;;;5.50;1.60;;;2.00;99.90;;;;;;5068315;28;20068;-63
2024/01/15 12:37:10;;;;;;;5.55;0.80;;;2.00;99.90;;;;;;5080973;28;20063;-63
2024/01/15 12:39:36;;;;;;;4.68;0.95;;;2.00;99.90;;;;;;5080257;28;20048;-63
2024/01/15 12:42:03;;;;;;;8.60;0.90;;;2.10;99.90;;;;;;5085961;28;20040;-63
2024/01/15 12:44:29;;;;;;;3.72;0.43;;;2.10;99.90;;;;;;5082163;28;20552;-63
2024/01/15 12:46:55;;;;;;;7.47;1.40;;;2.10;99.90;;;;;;5087547;28;20032;-63
2024/01/15 12:49:23;;;;;;;6.13;1.45;;;2.10;99.90;;;;;;5115190;27;20050;-63
2024/01/15 12:51:53;;;;;;;6.18;0.70;;;2.10;99.90;;;;;;5088673;28;20070;-63